createdAt,value
2019-05-07T00:00:03.382Z,101836.60
2019-05-07T00:02:33.123Z,101832.98
2019-05-07T00:05:02.755Z,101841.36
2019-05-07T00:07:32.140Z,101842.73
2019-05-07T00:10:03.382Z,101839.36
2019-05-07T00:12:32.443Z,101842.54
2019-05-07T00:15:04.441Z,101835.27
2019-05-07T00:17:32.872Z,101836.09
2019-05-07T00:20:02.339Z,101831.14
2019-05-07T00:22:32.681Z,101830.39
2019-05-07T00:25:03.125Z,101834.84
2019-05-07T00:27:32.436Z,101825.86
2019-05-07T00:30:02.864Z,101832.98
2019-05-07T00:32:33.738Z,101828.62
2019-05-07T00:35:07.264Z,101827.24
2019-05-07T00:37:38.071Z,101828.62
2019-05-07T00:40:22.526Z,101832.44
2019-05-07T00:43:08.466Z,101829.92
2019-05-07T00:45:56.995Z,101835.80
2019-05-07T00:48:26.530Z,101832.63
2019-05-07T00:50:57.343Z,101826.41
2019-05-07T00:53:26.522Z,101832.94
2019-05-07T00:55:55.721Z,101829.76
2019-05-07T00:58:26.836Z,101827.55
2019-05-07T01:00:55.849Z,101834.70
2019-05-07T01:03:25.016Z,101823.77
2019-05-07T01:05:54.212Z,101817.59
2019-05-07T01:08:23.395Z,101822.40
2019-05-07T01:10:53.070Z,101820.00
2019-05-07T01:13:23.363Z,101823.27
2019-05-07T01:15:53.359Z,101819.61
2019-05-07T01:18:23.450Z,101817.92
2019-05-07T01:20:53.461Z,101820.13
2019-05-07T01:23:23.186Z,101817.77
2019-05-07T01:25:52.820Z,101822.21
2019-05-07T01:28:22.474Z,101813.76
2019-05-07T01:30:52.796Z,101822.21
2019-05-07T01:33:23.962Z,101818.20
2019-05-07T01:36:03.537Z,101817.77
2019-05-07T01:38:34.710Z,101818.70
2019-05-07T01:41:03.900Z,101819.22
2019-05-07T01:43:33.092Z,101812.62
2019-05-07T01:46:03.169Z,101824.57
2019-05-07T01:48:32.532Z,101817.41
2019-05-07T01:51:03.439Z,101819.69
2019-05-07T01:53:32.814Z,101816.43
2019-05-07T01:56:03.223Z,101812.49
2019-05-07T01:58:33.306Z,101817.92
2019-05-07T02:01:03.014Z,101818.44
2019-05-07T02:03:41.920Z,101809.16
2019-05-07T02:06:13.200Z,101812.66
2019-05-07T02:08:44.334Z,101810.92
2019-05-07T02:11:27.107Z,101806.87
2019-05-07T02:13:56.373Z,101807.50
2019-05-07T02:16:25.547Z,101805.34
2019-05-07T02:18:54.732Z,101808.69
2019-05-07T02:21:24.911Z,101804.67
2019-05-07T02:23:54.091Z,101804.78
2019-05-07T02:26:23.254Z,101800.38
2019-05-07T02:28:52.427Z,101813.23
2019-05-07T02:31:23.317Z,101807.54
2019-05-07T02:33:54.200Z,101803.53
2019-05-07T02:36:24.605Z,101800.22
2019-05-07T02:39:04.045Z,101799.33
2019-05-07T02:41:35.014Z,101803.06
2019-05-07T02:44:04.494Z,101788.47
2019-05-07T02:46:36.454Z,101791.54
2019-05-07T02:49:07.506Z,101793.58
2019-05-07T02:51:38.347Z,101789.92
2019-05-07T02:54:13.356Z,101782.69
2019-05-07T02:56:43.348Z,101781.31
2019-05-07T02:59:13.663Z,101782.52
2019-05-07T03:01:43.530Z,101779.37
2019-05-07T03:04:13.052Z,101776.31
2019-05-07T03:06:44.358Z,101777.06
2019-05-07T03:09:14.390Z,101783.63
2019-05-07T03:11:43.996Z,101786.70
2019-05-07T03:14:14.174Z,101782.95
2019-05-07T03:16:49.209Z,101783.90
2019-05-07T03:19:16.481Z,101786.41
2019-05-07T03:21:55.516Z,101779.37
2019-05-07T03:24:34.115Z,101782.72
2019-05-07T03:27:03.221Z,101776.97
2019-05-07T03:29:33.520Z,101775.48
2019-05-07T03:32:28.743Z,101774.70
2019-05-07T03:35:05.983Z,101767.07
2019-05-07T03:37:36.177Z,101767.58
2019-05-07T03:40:04.247Z,101767.98
2019-05-07T03:42:33.935Z,101761.27
2019-05-07T03:45:13.667Z,101758.12
2019-05-07T03:47:44.078Z,101769.91
2019-05-07T03:50:14.698Z,101754.92
2019-05-07T03:52:44.221Z,101758.11
2019-05-07T03:55:14.716Z,101756.84
2019-05-07T03:57:44.305Z,101754.44
2019-05-07T04:00:33.284Z,101754.44
2019-05-07T04:03:03.646Z,101755.51
2019-05-07T04:05:34.210Z,101756.62
2019-05-07T04:08:03.837Z,101758.12
2019-05-07T04:10:33.797Z,101750.25
2019-05-07T04:13:04.487Z,101750.21
2019-05-07T04:15:33.884Z,101747.62
2019-05-07T04:18:03.822Z,101746.41
2019-05-07T04:20:33.587Z,101747.86
2019-05-07T04:23:04.303Z,101751.20
2019-05-07T04:25:35.329Z,101745.42
2019-05-07T04:28:09.268Z,101742.40
2019-05-07T04:30:38.834Z,101747.06
2019-05-07T04:33:13.053Z,101742.31
2019-05-07T04:35:44.082Z,101737.01
2019-05-07T04:38:13.899Z,101730.20
2019-05-07T04:40:43.723Z,101726.27
2019-05-07T04:43:13.726Z,101731.02
2019-05-07T04:45:43.510Z,101725.84
2019-05-07T04:48:14.228Z,101721.25
2019-05-07T04:50:47.670Z,101720.11
2019-05-07T04:53:16.293Z,101716.64
2019-05-07T04:56:03.590Z,101719.00
2019-05-07T04:58:53.130Z,101712.64
2019-05-07T05:01:23.652Z,101716.06
2019-05-07T05:03:54.087Z,101720.19
2019-05-07T05:06:24.182Z,101719.72
2019-05-07T05:08:56.294Z,101715.71
2019-05-07T05:11:24.475Z,101714.88
2019-05-07T05:13:53.654Z,101712.56
2019-05-07T05:16:24.085Z,101718.85
2019-05-07T05:18:54.596Z,101714.48
2019-05-07T05:21:28.203Z,101716.34
2019-05-07T05:23:59.022Z,101722.63
2019-05-07T05:26:28.218Z,101717.23
2019-05-07T05:28:57.414Z,101711.77
2019-05-07T05:31:26.690Z,101716.88
2019-05-07T05:33:56.904Z,101719.59
2019-05-07T05:36:26.104Z,101716.84
2019-05-07T05:38:55.308Z,101710.66
2019-05-07T05:41:26.154Z,101704.29
2019-05-07T05:43:56.974Z,101710.19
2019-05-07T05:46:27.800Z,101713.77
2019-05-07T05:48:56.996Z,101708.70
2019-05-07T05:51:32.217Z,101713.81
2019-05-07T05:54:03.427Z,101718.05
2019-05-07T05:56:34.234Z,101717.62
2019-05-07T05:59:05.068Z,101712.44
2019-05-07T06:01:52.405Z,101711.24
2019-05-07T06:04:26.048Z,101714.70
2019-05-07T06:07:14.764Z,101716.34
2019-05-07T06:10:02.505Z,101713.20
2019-05-07T06:12:33.280Z,101710.39
2019-05-07T06:15:22.220Z,101706.34
2019-05-07T06:17:55.603Z,101704.45
2019-05-07T06:20:32.310Z,101704.55
2019-05-07T06:23:17.872Z,101701.22
2019-05-07T06:25:48.155Z,101700.95
2019-05-07T06:28:17.343Z,101702.37
2019-05-07T06:30:46.545Z,101695.50
2019-05-07T06:33:15.737Z,101699.00
2019-05-07T06:35:44.932Z,101705.55
2019-05-07T06:38:15.040Z,101701.42
2019-05-07T06:41:02.726Z,101704.78
2019-05-07T06:43:45.363Z,101710.09
2019-05-07T06:46:14.558Z,101692.05
2019-05-07T06:48:46.218Z,101699.98
2019-05-07T06:51:17.261Z,101704.15
2019-05-07T06:53:45.616Z,101697.78
2019-05-07T06:56:14.811Z,101697.78
2019-05-07T07:01:44.181Z,101699.81
2019-05-07T07:04:15.093Z,101696.90
2019-05-07T07:09:51.838Z,101699.23
2019-05-07T07:12:28.138Z,101700.91
2019-05-07T07:14:58.185Z,101696.16
2019-05-07T07:17:27.786Z,101702.03
2019-05-07T07:19:56.986Z,101701.92
2019-05-07T07:22:26.263Z,101701.58
2019-05-07T07:24:55.473Z,101696.66
2019-05-07T07:27:24.766Z,101699.22
2019-05-07T07:29:58.055Z,101699.22
2019-05-07T07:32:28.888Z,101695.05
2019-05-07T07:34:58.140Z,101694.58
2019-05-07T07:37:29.013Z,101694.58
2019-05-07T07:40:12.866Z,101696.31
2019-05-07T07:42:42.706Z,101692.22
2019-05-07T07:45:16.148Z,101689.33
2019-05-07T07:47:46.797Z,101683.36
2019-05-07T07:50:16.757Z,101683.36
2019-05-07T07:52:46.127Z,101687.31
2019-05-07T07:55:17.364Z,101678.72
2019-05-07T07:58:06.431Z,101679.10
2019-05-07T08:00:43.178Z,101679.10
2019-05-07T08:03:14.218Z,101678.45
2019-05-07T08:05:43.407Z,101669.59
2019-05-07T08:08:12.937Z,101685.41
2019-05-07T08:10:42.644Z,101678.30
2019-05-07T08:13:12.262Z,101677.52
2019-05-07T08:15:43.025Z,101671.80
2019-05-07T08:18:12.402Z,101667.98
2019-05-07T08:20:43.051Z,101671.05
2019-05-07T08:23:12.339Z,101667.69
2019-05-07T08:25:47.657Z,101660.59
2019-05-07T08:28:18.714Z,101660.05
2019-05-07T08:30:49.655Z,101658.70
2019-05-07T08:33:22.416Z,101653.19
2019-05-07T08:35:53.009Z,101652.66
2019-05-07T08:38:22.203Z,101648.98
2019-05-07T08:40:52.130Z,101647.27
2019-05-07T08:43:21.928Z,101646.87
2019-05-07T08:45:55.326Z,101646.87
2019-05-07T08:48:26.149Z,101641.10
2019-05-07T08:50:55.333Z,101633.06
2019-05-07T08:53:24.533Z,101634.88
2019-05-07T08:55:53.766Z,101631.69
2019-05-07T08:58:23.189Z,101629.91
2019-05-07T09:00:52.469Z,101631.62
2019-05-07T09:03:29.058Z,101625.03
2019-05-07T09:05:58.231Z,101625.03
2019-05-07T09:08:27.471Z,101619.66
2019-05-07T09:10:56.925Z,101618.02
2019-05-07T09:13:26.142Z,101623.06
2019-05-07T09:15:56.264Z,101619.17
2019-05-07T09:18:25.528Z,101619.42
2019-05-07T09:20:55.743Z,101615.69
2019-05-07T09:23:26.985Z,101611.05
2019-05-07T09:25:56.178Z,101607.13
2019-05-07T09:28:26.085Z,101604.38
2019-05-07T09:31:02.638Z,101606.32
2019-05-07T09:33:36.227Z,101600.95
2019-05-07T09:36:07.121Z,101603.46
2019-05-07T09:38:36.329Z,101604.25
2019-05-07T09:41:05.548Z,101601.13
2019-05-07T09:43:34.755Z,101596.80
2019-05-07T09:46:04.018Z,101593.84
2019-05-07T09:48:33.846Z,101589.69
2019-05-07T09:51:04.248Z,101584.29
2019-05-07T09:53:33.481Z,101591.12
2019-05-07T09:56:02.684Z,101585.58
2019-05-07T09:58:36.734Z,101587.84
2019-05-07T10:01:02.857Z,101585.02
2019-05-07T10:03:32.529Z,101575.63
2019-05-07T10:06:02.373Z,101580.67
2019-05-07T10:08:33.046Z,101580.23
2019-05-07T10:11:04.169Z,101574.05
2019-05-07T10:13:43.572Z,101564.66
2019-05-07T10:16:14.467Z,101570.32
2019-05-07T10:18:43.669Z,101556.59
2019-05-07T10:21:12.846Z,101566.80
2019-05-07T10:23:42.027Z,101566.38
2019-05-07T10:26:12.202Z,101562.70
2019-05-07T10:28:42.477Z,101556.87
2019-05-07T10:31:11.748Z,101553.05
2019-05-07T10:33:42.202Z,101553.05
2019-05-07T10:36:12.503Z,101559.36
2019-05-07T10:38:41.831Z,101559.67
2019-05-07T10:41:12.135Z,101559.67
2019-05-07T10:43:42.868Z,101554.88
2019-05-07T10:46:25.025Z,101554.08
2019-05-07T10:48:58.561Z,101556.59
2019-05-07T10:51:27.733Z,101562.58
2019-05-07T10:53:56.946Z,101555.58
2019-05-07T10:56:26.129Z,101553.80
2019-05-07T10:58:55.349Z,101548.42
2019-05-07T11:01:26.209Z,101550.56
2019-05-07T11:03:55.707Z,101554.84
2019-05-07T11:06:24.887Z,101540.09
2019-05-07T11:08:54.118Z,101546.24
2019-05-07T11:11:23.331Z,101542.78
2019-05-07T11:13:55.890Z,101539.47
2019-05-07T11:16:25.090Z,101540.62
2019-05-07T11:18:54.351Z,101537.64
2019-05-07T11:21:29.726Z,101540.28
2019-05-07T11:24:02.871Z,101530.73
2019-05-07T11:26:32.841Z,101528.71
2019-05-07T11:29:02.560Z,101530.11
2019-05-07T11:31:33.064Z,101526.03
2019-05-07T11:34:02.926Z,101524.01
2019-05-07T11:36:34.493Z,101517.73
2019-05-07T11:39:04.277Z,101519.19
2019-05-07T11:41:35.129Z,101516.51
2019-05-07T11:44:05.992Z,101516.13
2019-05-07T11:46:41.593Z,101517.42
2019-05-07T11:49:14.824Z,101504.91
2019-05-07T11:51:48.273Z,101509.19
2019-05-07T11:54:17.447Z,101501.33
2019-05-07T11:56:46.630Z,101499.19
2019-05-07T11:59:15.825Z,101503.39
2019-05-07T12:01:47.772Z,101492.94
2019-05-07T12:04:17.362Z,101494.42
2019-05-07T12:06:46.562Z,101490.25
2019-05-07T12:09:15.740Z,101481.49
2019-05-07T12:11:44.917Z,101485.12
2019-05-07T12:14:27.349Z,101485.12
2019-05-07T12:16:45.030Z,101480.97
2019-05-07T12:19:16.583Z,101479.39
2019-05-07T12:21:45.096Z,101482.30
2019-05-07T12:24:16.357Z,101477.09
2019-05-07T12:26:45.533Z,101479.30
2019-05-07T12:29:14.765Z,101479.30
2019-05-07T12:31:48.545Z,101466.00
2019-05-07T12:34:28.620Z,101473.06
2019-05-07T12:36:57.821Z,101476.75
2019-05-07T12:39:27.075Z,101472.89
2019-05-07T12:41:56.268Z,101470.68
2019-05-07T12:44:25.463Z,101465.00
2019-05-07T12:46:54.710Z,101468.30
2019-05-07T12:49:23.865Z,101469.38
2019-05-07T12:51:57.239Z,101468.06
2019-05-07T12:54:28.072Z,101464.37
2019-05-07T12:56:57.247Z,101468.30
2019-05-07T12:59:27.677Z,101463.95
2019-05-07T13:02:26.727Z,101465.48
2019-05-07T13:04:44.643Z,101466.48
2019-05-07T13:07:15.453Z,101468.34
2019-05-07T13:09:44.646Z,101468.30
2019-05-07T13:12:13.819Z,101469.98
2019-05-07T13:14:43.012Z,101468.41
2019-05-07T13:17:12.232Z,101464.44
2019-05-07T13:19:41.998Z,101463.20
2019-05-07T13:22:13.067Z,101460.72
2019-05-07T13:24:42.746Z,101459.72
2019-05-07T13:27:11.951Z,101385.36
2019-05-07T13:29:42.461Z,101449.63
2019-05-07T13:32:15.031Z,101445.43
2019-05-07T13:34:44.991Z,101441.94
2019-05-07T13:37:16.098Z,101440.27
2019-05-07T13:39:56.372Z,101429.23
2019-05-07T13:42:41.942Z,101414.31
2019-05-07T13:45:22.452Z,101414.31
2019-05-07T13:47:54.237Z,101413.55
2019-05-07T13:50:23.599Z,101403.30
2019-05-07T13:52:52.951Z,101396.80
2019-05-07T13:55:22.100Z,101396.80
2019-05-07T13:57:52.410Z,101398.48
2019-05-07T14:00:23.378Z,101388.09
2019-05-07T14:02:55.056Z,101394.75
2019-05-07T14:05:25.043Z,101381.63
2019-05-07T14:07:54.349Z,101368.28
2019-05-07T14:10:23.618Z,101376.48
2019-05-07T14:12:52.907Z,101383.54
2019-05-07T14:15:23.137Z,101384.73
2019-05-07T14:17:54.946Z,101383.72
2019-05-07T14:20:23.716Z,101381.11
2019-05-07T14:22:52.926Z,101379.09
2019-05-07T14:25:24.052Z,101375.32
2019-05-07T14:27:54.004Z,101373.75
2019-05-07T14:30:24.546Z,101370.42
2019-05-07T14:32:55.434Z,101374.05
2019-05-07T14:35:26.354Z,101357.91
2019-05-07T14:37:57.234Z,101368.59
2019-05-07T14:40:26.476Z,101361.45
2019-05-07T14:42:57.306Z,101356.70
2019-05-07T14:45:26.509Z,101359.52
2019-05-07T14:47:56.040Z,101354.51
2019-05-07T14:50:25.239Z,101348.97
2019-05-07T14:52:55.230Z,101348.27
2019-05-07T14:55:24.812Z,101345.56
2019-05-07T14:57:54.079Z,101341.45
2019-05-07T15:00:23.393Z,101338.66
2019-05-07T15:02:52.648Z,101331.84
2019-05-07T15:05:22.388Z,101328.20
2019-05-07T15:07:51.822Z,101324.95
2019-05-07T15:10:22.196Z,101314.69
2019-05-07T15:12:52.206Z,101315.96
2019-05-07T15:15:21.959Z,101311.69
2019-05-07T15:17:55.868Z,101308.61
2019-05-07T15:20:25.171Z,101304.52
2019-05-07T15:22:59.003Z,101309.02
2019-05-07T15:25:28.254Z,101308.30
2019-05-07T15:27:57.512Z,101304.84
2019-05-07T15:30:28.442Z,101296.32
2019-05-07T15:32:57.627Z,101302.70
2019-05-07T15:35:26.870Z,101289.36
2019-05-07T15:37:56.340Z,101290.71
2019-05-07T15:40:26.016Z,101291.84
2019-05-07T15:43:13.063Z,101289.31
2019-05-07T15:45:42.205Z,101291.55
2019-05-07T15:48:12.713Z,101283.61
2019-05-07T15:50:42.917Z,101279.58
2019-05-07T15:53:21.838Z,101278.56
2019-05-07T15:55:52.337Z,101277.91
2019-05-07T15:58:22.731Z,101277.34
2019-05-07T16:00:52.000Z,101273.87
2019-05-07T16:03:22.811Z,101265.53
2019-05-07T16:05:52.975Z,101263.32
2019-05-07T16:08:22.968Z,101256.46
2019-05-07T16:10:53.152Z,101253.18
2019-05-07T16:13:24.091Z,101257.63
2019-05-07T16:15:53.280Z,101247.20
2019-05-07T16:18:32.805Z,101245.16
2019-05-07T16:21:04.765Z,101239.62
2019-05-07T16:23:32.942Z,101237.81
2019-05-07T16:26:02.397Z,101239.44
2019-05-07T16:28:33.010Z,101234.56
2019-05-07T16:31:02.614Z,101227.19
2019-05-07T16:33:32.028Z,101226.16
2019-05-07T16:36:02.688Z,101224.09
2019-05-07T16:38:32.748Z,101224.63
2019-05-07T16:41:02.072Z,101218.30
2019-05-07T16:43:31.264Z,101207.94
2019-05-07T16:46:02.309Z,101212.91
2019-05-07T16:48:32.711Z,101213.44
2019-05-07T16:51:02.437Z,101221.10
2019-05-07T16:53:33.112Z,101212.87
2019-05-07T16:56:02.998Z,101212.30
2019-05-07T16:58:35.066Z,101202.72
2019-05-07T17:01:06.248Z,101203.01
2019-05-07T17:03:49.232Z,101209.00
2019-05-07T17:06:18.416Z,101207.13
2019-05-07T17:08:49.237Z,101205.05
2019-05-07T17:11:18.466Z,101201.05
2019-05-07T17:13:47.743Z,101198.14
2019-05-07T17:16:16.950Z,101202.46
2019-05-07T17:18:46.162Z,101199.95
2019-05-07T17:21:16.808Z,101198.32
2019-05-07T17:23:46.012Z,101194.69
2019-05-07T17:26:15.530Z,101190.44
2019-05-07T17:28:44.714Z,101196.81
2019-05-07T17:31:13.941Z,101191.34
2019-05-07T17:33:43.116Z,101187.77
2019-05-07T17:36:12.396Z,101181.80
2019-05-07T17:38:42.861Z,101184.30
2019-05-07T17:41:20.004Z,101177.72
2019-05-07T17:43:43.063Z,101174.02
2019-05-07T17:46:12.356Z,101168.34
2019-05-07T17:48:42.788Z,101168.72
2019-05-07T17:51:13.980Z,101171.81
2019-05-07T17:53:56.566Z,101166.18
2019-05-07T17:56:14.093Z,101166.95
2019-05-07T17:58:43.367Z,101162.92
2019-05-07T18:01:12.555Z,101161.82
2019-05-07T18:03:42.896Z,101165.86
2019-05-07T18:06:12.605Z,101164.06
2019-05-07T18:08:41.844Z,101157.78
2019-05-07T18:11:20.136Z,101155.37
2019-05-07T18:13:42.624Z,101153.30
2019-05-07T18:16:16.158Z,101153.18
2019-05-07T18:22:46.903Z,101145.02
2019-05-07T18:25:17.078Z,101149.10
2019-05-07T18:27:50.050Z,101143.52
2019-05-07T18:30:22.189Z,101152.07
2019-05-07T18:32:53.410Z,101149.47
2019-05-07T18:35:23.166Z,101141.31
2019-05-07T18:37:52.789Z,101144.16
2019-05-07T18:40:22.697Z,101143.39
2019-05-07T18:42:52.542Z,101144.16
2019-05-07T18:45:22.027Z,101142.25
2019-05-07T18:47:51.700Z,101142.25
2019-05-07T18:50:22.547Z,101140.86
2019-05-07T18:52:52.448Z,101108.16
2019-05-07T18:55:22.619Z,101147.11
2019-05-07T18:57:52.116Z,101143.19
2019-05-07T19:00:32.167Z,101143.72
2019-05-07T19:03:03.479Z,101138.78
2019-05-07T19:05:33.241Z,101134.30
2019-05-07T19:08:08.139Z,101138.78
2019-05-07T19:10:33.519Z,101138.98
2019-05-07T19:13:02.815Z,101133.28
2019-05-07T19:15:32.841Z,101135.72
2019-05-07T19:18:02.771Z,101133.68
2019-05-07T19:20:32.748Z,101133.41
2019-05-07T19:23:02.780Z,101135.31
2019-05-07T19:25:32.733Z,101132.83
2019-05-07T19:28:02.204Z,101132.25
2019-05-07T19:30:32.724Z,101129.81
2019-05-07T19:33:23.576Z,101128.95
2019-05-07T19:35:52.826Z,101132.91
2019-05-07T19:38:22.293Z,101124.52
2019-05-07T19:40:52.829Z,101132.86
2019-05-07T19:43:24.348Z,101129.88
2019-05-07T19:45:53.495Z,101126.99
2019-05-07T19:48:23.224Z,101117.02
2019-05-07T19:50:52.827Z,101113.09
2019-05-07T19:53:23.633Z,101106.97
2019-05-07T19:56:03.347Z,101098.26
2019-05-07T19:58:34.470Z,101084.72
2019-05-07T20:01:05.282Z,101084.72
2019-05-07T20:03:34.645Z,101084.39
2019-05-07T20:06:04.044Z,101076.97
2019-05-07T20:08:33.362Z,101078.45
2019-05-07T20:11:07.252Z,101078.45
2019-05-07T20:13:36.971Z,101074.77
2019-05-07T20:16:09.020Z,101073.50
2019-05-07T20:18:38.329Z,101074.53
2019-05-07T20:21:07.608Z,101070.81
2019-05-07T20:23:36.846Z,101071.09
2019-05-07T20:26:06.085Z,101062.57
2019-05-07T20:28:35.338Z,101071.95
2019-05-07T20:31:04.510Z,101072.11
2019-05-07T20:33:33.718Z,101064.03
2019-05-07T20:36:02.988Z,101072.09
2019-05-07T20:38:32.202Z,101066.23
2019-05-07T20:41:02.130Z,101058.73
2019-05-07T20:43:32.763Z,101061.55
2019-05-07T20:46:02.709Z,101065.18
2019-05-07T20:48:32.642Z,101056.28
2019-05-07T20:51:01.970Z,101056.69
2019-05-07T20:53:42.311Z,101055.45
2019-05-07T20:56:12.246Z,101047.47
2019-05-07T20:58:52.906Z,101046.69
2019-05-07T21:01:22.197Z,101049.91
2019-05-07T21:03:52.902Z,101046.37
2019-05-07T21:06:22.503Z,101037.98
2019-05-07T21:08:51.856Z,101029.22
2019-05-07T21:11:22.732Z,101027.02
2019-05-07T21:13:52.485Z,101023.55
2019-05-07T21:16:22.166Z,101022.91
2019-05-07T21:18:52.871Z,101023.55
2019-05-07T21:21:22.111Z,101020.59
2019-05-07T21:23:52.723Z,101011.44
2019-05-07T21:26:22.627Z,101001.34
2019-05-07T21:28:52.838Z,100993.81
2019-05-07T21:31:22.879Z,100996.17
2019-05-07T21:33:52.506Z,100989.83
2019-05-07T21:36:22.803Z,100983.56
2019-05-07T21:38:52.270Z,100974.11
2019-05-07T21:41:22.665Z,100961.28
2019-05-07T21:43:52.864Z,100961.28
2019-05-07T21:46:22.467Z,100971.38
2019-05-07T21:48:53.630Z,100967.34
2019-05-07T21:51:22.986Z,100967.34
2019-05-07T21:53:59.374Z,100964.61
2019-05-07T21:56:30.204Z,100966.17
2019-05-07T21:59:03.991Z,100959.53
2019-05-07T22:01:35.200Z,100956.55
2019-05-07T22:04:04.475Z,100960.38
2019-05-07T22:06:33.651Z,100952.52
2019-05-07T22:09:03.308Z,100949.63
2019-05-07T22:11:32.500Z,100938.63
2019-05-07T22:14:02.199Z,100931.47
2019-05-07T22:16:32.848Z,100928.87
2019-05-07T22:19:02.788Z,100927.73
2019-05-07T22:21:34.160Z,100924.77
2019-05-07T22:24:03.027Z,100913.58
2019-05-07T22:26:32.433Z,100909.30
2019-05-07T22:29:03.059Z,100909.30
2019-05-07T22:31:34.082Z,100901.80
2019-05-07T22:34:04.910Z,100902.28
2019-05-07T22:36:34.126Z,100906.20
2019-05-07T22:39:03.693Z,100897.37
2019-05-07T22:41:32.877Z,100890.58
2019-05-07T22:44:02.607Z,100891.14
2019-05-07T22:46:32.688Z,100883.84
2019-05-07T22:49:03.143Z,100883.33
2019-05-07T22:51:32.551Z,100877.18
2019-05-07T22:54:04.096Z,100880.06
2019-05-07T22:56:37.554Z,100876.84
2019-05-07T22:59:05.336Z,100871.23
2019-05-07T23:01:34.537Z,100866.55
2019-05-07T23:04:03.766Z,100864.08
2019-05-07T23:06:32.953Z,100863.75
2019-05-07T23:09:02.172Z,100862.93
2019-05-07T23:11:31.372Z,100854.88
2019-05-07T23:14:02.531Z,100853.60
2019-05-07T23:16:32.470Z,100852.47
2019-05-07T23:19:01.777Z,100853.48
2019-05-07T23:21:32.003Z,100844.66
2019-05-07T23:24:07.074Z,100839.00
2019-05-07T23:26:47.299Z,100840.26
2019-05-07T23:29:07.156Z,100832.53
2019-05-07T23:31:36.426Z,100834.56
2019-05-07T23:34:05.614Z,100840.71
2019-05-07T23:36:34.854Z,100840.42
2019-05-07T23:39:06.042Z,100835.83
2019-05-07T23:41:36.864Z,100833.47
2019-05-07T23:44:16.460Z,100834.89
2019-05-07T23:46:45.660Z,100826.84
2019-05-07T23:49:14.862Z,100821.67
2019-05-07T23:51:44.053Z,100819.69
2019-05-07T23:54:13.225Z,100817.65
2019-05-07T23:56:42.936Z,100811.38
2019-05-07T23:59:14.761Z,100807.31
